sensor_id;sensor_type;location;lat;lon;timestamp;P1;durP1;ratioP1;P2;durP2;ratioP2
29838;SDS011;18669;53.356;-1.464;2023-05-20T00:01:25;18.77;;;9.90;;
29838;SDS011;18669;53.356;-1.464;2023-05-20T00:04:10;20.38;;;10.70;;
29838;SDS011;18669;53.356;-1.464;2023-05-20T00:06:55;18.65;;;10.75;;
29838;SDS011;18669;53.356;-1.464;2023-05-20T00:09:40;26.80;;;12.75;;
29838;SDS011;18669;53.356;-1.464;2023-05-20T00:12:25;19.30;;;11.52;;
29838;SDS011;18669;53.356;-1.464;2023-05-20T00:15:10;20.60;;;12.02;;
29838;SDS011;18669;53.356;-1.464;2023-05-20T00:17:59;23.77;;;13.77;;
29838;SDS011;18669;53.356;-1.464;2023-05-20T00:20:44;27.77;;;14.60;;
29838;SDS011;18669;53.356;-1.464;2023-05-20T00:23:29;23.65;;;13.45;;
29838;SDS011;18669;53.356;-1.464;2023-05-20T00:26:14;26.05;;;13.25;;
29838;SDS011;18669;53.356;-1.464;2023-05-20T00:28:59;22.48;;;12.38;;
29838;SDS011;18669;53.356;-1.464;2023-05-20T00:31:44;24.70;;;13.45;;
29838;SDS011;18669;53.356;-1.464;2023-05-20T00:34:29;23.02;;;12.40;;
29838;SDS011;18669;53.356;-1.464;2023-05-20T00:37:14;23.90;;;12.98;;
29838;SDS011;18669;53.356;-1.464;2023-05-20T00:39:59;25.10;;;13.07;;
29838;SDS011;18669;53.356;-1.464;2023-05-20T00:42:44;26.05;;;14.32;;
29838;SDS011;18669;53.356;-1.464;2023-05-20T00:45:29;24.17;;;14.18;;
29838;SDS011;18669;53.356;-1.464;2023-05-20T00:48:14;26.75;;;13.57;;
29838;SDS011;18669;53.356;-1.464;2023-05-20T00:50:59;28.08;;;13.60;;
29838;SDS011;18669;53.356;-1.464;2023-05-20T00:53:45;24.63;;;13.43;;
29838;SDS011;18669;53.356;-1.464;2023-05-20T00:56:31;25.50;;;13.80;;
29838;SDS011;18669;53.356;-1.464;2023-05-20T00:59:16;29.52;;;13.75;;
29838;SDS011;18669;53.356;-1.464;2023-05-20T01:02:04;24.10;;;14.18;;
29838;SDS011;18669;53.356;-1.464;2023-05-20T01:04:49;24.52;;;13.65;;
29838;SDS011;18669;53.356;-1.464;2023-05-20T01:07:34;23.27;;;12.90;;
29838;SDS011;18669;53.356;-1.464;2023-05-20T01:10:20;25.33;;;13.82;;
29838;SDS011;18669;53.356;-1.464;2023-05-20T01:13:09;25.10;;;13.10;;
29838;SDS011;18669;53.356;-1.464;2023-05-20T01:15:58;26.33;;;13.38;;
29838;SDS011;18669;53.356;-1.464;2023-05-20T01:18:44;25.13;;;12.60;;
29838;SDS011;18669;53.356;-1.464;2023-05-20T01:21:31;22.17;;;12.93;;
29838;SDS011;18669;53.356;-1.464;2023-05-20T01:24:17;27.40;;;13.05;;
29838;SDS011;18669;53.356;-1.464;2023-05-20T01:27:02;29.90;;;14.55;;
29838;SDS011;18669;53.356;-1.464;2023-05-20T01:29:47;24.27;;;13.90;;
29838;SDS011;18669;53.356;-1.464;2023-05-20T01:32:35;26.63;;;15.55;;
29838;SDS011;18669;53.356;-1.464;2023-05-20T01:35:23;28.42;;;15.07;;
29838;SDS011;18669;53.356;-1.464;2023-05-20T01:38:09;30.05;;;15.82;;
29838;SDS011;18669;53.356;-1.464;2023-05-20T01:40:55;28.73;;;17.20;;
29838;SDS011;18669;53.356;-1.464;2023-05-20T01:43:42;33.05;;;16.65;;
29838;SDS011;18669;53.356;-1.464;2023-05-20T01:46:27;35.10;;;18.23;;
29838;SDS011;18669;53.356;-1.464;2023-05-20T01:49:16;35.88;;;18.17;;
29838;SDS011;18669;53.356;-1.464;2023-05-20T01:52:01;27.30;;;16.58;;
29838;SDS011;18669;53.356;-1.464;2023-05-20T01:54:46;28.13;;;15.57;;
29838;SDS011;18669;53.356;-1.464;2023-05-20T01:57:34;33.80;;;16.25;;
29838;SDS011;18669;53.356;-1.464;2023-05-20T02:00:19;29.70;;;14.93;;
29838;SDS011;18669;53.356;-1.464;2023-05-20T02:03:04;24.85;;;13.75;;
29838;SDS011;18669;53.356;-1.464;2023-05-20T02:05:49;26.65;;;13.82;;
29838;SDS011;18669;53.356;-1.464;2023-05-20T02:08:34;27.48;;;15.02;;
29838;SDS011;18669;53.356;-1.464;2023-05-20T02:11:19;25.35;;;13.27;;
29838;SDS011;18669;53.356;-1.464;2023-05-20T02:14:04;25.30;;;13.40;;
29838;SDS011;18669;53.356;-1.464;2023-05-20T02:16:49;23.90;;;13.32;;
29838;SDS011;18669;53.356;-1.464;2023-05-20T02:19:34;23.73;;;12.55;;
29838;SDS011;18669;53.356;-1.464;2023-05-20T02:22:18;25.75;;;12.20;;
29838;SDS011;18669;53.356;-1.464;2023-05-20T02:25:04;22.30;;;11.88;;
29838;SDS011;18669;53.356;-1.464;2023-05-20T02:27:49;26.27;;;12.63;;
29838;SDS011;18669;53.356;-1.464;2023-05-20T02:30:34;22.30;;;13.00;;
29838;SDS011;18669;53.356;-1.464;2023-05-20T02:33:19;28.38;;;13.43;;
29838;SDS011;18669;53.356;-1.464;2023-05-20T02:36:04;20.02;;;11.65;;
29838;SDS011;18669;53.356;-1.464;2023-05-20T02:38:49;19.83;;;11.82;;
29838;SDS011;18669;53.356;-1.464;2023-05-20T02:41:34;24.45;;;11.32;;
29838;SDS011;18669;53.356;-1.464;2023-05-20T02:44:19;21.58;;;12.30;;
29838;SDS011;18669;53.356;-1.464;2023-05-20T02:47:04;23.35;;;12.38;;
29838;SDS011;18669;53.356;-1.464;2023-05-20T02:49:49;25.42;;;11.88;;
29838;SDS011;18669;53.356;-1.464;2023-05-20T02:52:34;28.02;;;13.80;;
29838;SDS011;18669;53.356;-1.464;2023-05-20T02:55:19;25.25;;;12.80;;
29838;SDS011;18669;53.356;-1.464;2023-05-20T02:58:04;24.55;;;13.25;;
29838;SDS011;18669;53.356;-1.464;2023-05-20T03:00:49;23.60;;;13.48;;
29838;SDS011;18669;53.356;-1.464;2023-05-20T03:03:34;22.42;;;12.32;;
29838;SDS011;18669;53.356;-1.464;2023-05-20T03:06:21;20.73;;;11.55;;
29838;SDS011;18669;53.356;-1.464;2023-05-20T03:09:06;22.13;;;11.95;;
29838;SDS011;18669;53.356;-1.464;2023-05-20T03:11:50;22.77;;;11.25;;
29838;SDS011;18669;53.356;-1.464;2023-05-20T03:14:36;17.20;;;10.02;;
29838;SDS011;18669;53.356;-1.464;2023-05-20T03:17:20;20.77;;;10.68;;
29838;SDS011;18669;53.356;-1.464;2023-05-20T03:20:05;18.88;;;10.80;;
29838;SDS011;18669;53.356;-1.464;2023-05-20T03:22:51;20.67;;;11.10;;
29838;SDS011;18669;53.356;-1.464;2023-05-20T03:25:36;20.70;;;11.70;;
29838;SDS011;18669;53.356;-1.464;2023-05-20T03:28:21;21.95;;;11.45;;
29838;SDS011;18669;53.356;-1.464;2023-05-20T03:31:06;19.73;;;11.18;;
29838;SDS011;18669;53.356;-1.464;2023-05-20T03:33:51;20.65;;;10.85;;
29838;SDS011;18669;53.356;-1.464;2023-05-20T03:36:36;18.17;;;10.52;;
29838;SDS011;18669;53.356;-1.464;2023-05-20T03:39:21;19.45;;;10.15;;
29838;SDS011;18669;53.356;-1.464;2023-05-20T03:42:06;23.15;;;10.15;;
29838;SDS011;18669;53.356;-1.464;2023-05-20T03:44:51;16.95;;;10.55;;
29838;SDS011;18669;53.356;-1.464;2023-05-20T03:47:36;18.08;;;10.32;;
29838;SDS011;18669;53.356;-1.464;2023-05-20T03:50:21;20.02;;;10.43;;
29838;SDS011;18669;53.356;-1.464;2023-05-20T03:53:06;18.23;;;10.05;;
29838;SDS011;18669;53.356;-1.464;2023-05-20T03:55:50;21.30;;;10.88;;
29838;SDS011;18669;53.356;-1.464;2023-05-20T03:58:35;18.83;;;11.25;;
29838;SDS011;18669;53.356;-1.464;2023-05-20T04:01:22;18.43;;;11.00;;
29838;SDS011;18669;53.356;-1.464;2023-05-20T04:04:08;25.10;;;12.07;;
29838;SDS011;18669;53.356;-1.464;2023-05-20T04:06:53;31.17;;;11.98;;
29838;SDS011;18669;53.356;-1.464;2023-05-20T04:09:39;22.85;;;12.38;;
29838;SDS011;18669;53.356;-1.464;2023-05-20T04:12:24;33.95;;;18.08;;
29838;SDS011;18669;53.356;-1.464;2023-05-20T04:15:14;28.10;;;13.18;;
29838;SDS011;18669;53.356;-1.464;2023-05-20T04:17:58;30.45;;;14.00;;
29838;SDS011;18669;53.356;-1.464;2023-05-20T04:20:44;32.15;;;16.38;;
29838;SDS011;18669;53.356;-1.464;2023-05-20T04:23:30;45.75;;;18.90;;
29838;SDS011;18669;53.356;-1.464;2023-05-20T04:26:16;39.20;;;18.50;;
29838;SDS011;18669;53.356;-1.464;2023-05-20T04:29:01;42.95;;;19.17;;
29838;SDS011;18669;53.356;-1.464;2023-05-20T04:31:47;39.20;;;19.77;;
29838;SDS011;18669;53.356;-1.464;2023-05-20T04:34:32;37.63;;;19.73;;
29838;SDS011;18669;53.356;-1.464;2023-05-20T04:37:18;34.83;;;18.02;;
29838;SDS011;18669;53.356;-1.464;2023-05-20T04:40:03;38.40;;;19.05;;
29838;SDS011;18669;53.356;-1.464;2023-05-20T04:42:50;42.08;;;20.20;;
29838;SDS011;18669;53.356;-1.464;2023-05-20T04:45:35;41.67;;;20.20;;
29838;SDS011;18669;53.356;-1.464;2023-05-20T04:48:19;38.58;;;18.67;;
29838;SDS011;18669;53.356;-1.464;2023-05-20T04:51:05;43.30;;;20.00;;
29838;SDS011;18669;53.356;-1.464;2023-05-20T04:53:50;48.47;;;18.67;;
29838;SDS011;18669;53.356;-1.464;2023-05-20T04:56:35;38.30;;;19.35;;
29838;SDS011;18669;53.356;-1.464;2023-05-20T04:59:20;43.50;;;20.05;;
29838;SDS011;18669;53.356;-1.464;2023-05-20T05:02:05;38.85;;;19.13;;
29838;SDS011;18669;53.356;-1.464;2023-05-20T05:04:50;36.53;;;18.77;;
29838;SDS011;18669;53.356;-1.464;2023-05-20T05:07:35;46.45;;;19.45;;
29838;SDS011;18669;53.356;-1.464;2023-05-20T05:10:20;37.33;;;18.63;;
29838;SDS011;18669;53.356;-1.464;2023-05-20T05:13:06;44.40;;;21.73;;
29838;SDS011;18669;53.356;-1.464;2023-05-20T05:15:58;44.95;;;22.73;;
29838;SDS011;18669;53.356;-1.464;2023-05-20T05:18:43;46.10;;;24.38;;
29838;SDS011;18669;53.356;-1.464;2023-05-20T05:21:28;44.40;;;22.15;;
29838;SDS011;18669;53.356;-1.464;2023-05-20T05:24:13;51.83;;;25.15;;
29838;SDS011;18669;53.356;-1.464;2023-05-20T05:26:58;59.97;;;24.52;;
29838;SDS011;18669;53.356;-1.464;2023-05-20T05:29:43;46.22;;;23.52;;
29838;SDS011;18669;53.356;-1.464;2023-05-20T05:32:28;47.67;;;24.67;;
29838;SDS011;18669;53.356;-1.464;2023-05-20T05:35:13;50.85;;;26.15;;
29838;SDS011;18669;53.356;-1.464;2023-05-20T05:37:58;59.35;;;24.95;;
29838;SDS011;18669;53.356;-1.464;2023-05-20T05:40:42;51.33;;;24.08;;
29838;SDS011;18669;53.356;-1.464;2023-05-20T05:43:27;53.70;;;24.80;;
29838;SDS011;18669;53.356;-1.464;2023-05-20T05:46:12;54.05;;;24.80;;
29838;SDS011;18669;53.356;-1.464;2023-05-20T05:48:57;46.78;;;24.58;;
29838;SDS011;18669;53.356;-1.464;2023-05-20T05:51:42;54.03;;;26.83;;
29838;SDS011;18669;53.356;-1.464;2023-05-20T05:54:27;50.25;;;25.60;;
29838;SDS011;18669;53.356;-1.464;2023-05-20T05:57:12;52.40;;;23.70;;
29838;SDS011;18669;53.356;-1.464;2023-05-20T05:59:57;46.45;;;22.20;;
29838;SDS011;18669;53.356;-1.464;2023-05-20T06:02:42;41.80;;;21.50;;
29838;SDS011;18669;53.356;-1.464;2023-05-20T06:05:27;48.72;;;22.48;;
29838;SDS011;18669;53.356;-1.464;2023-05-20T06:08:12;43.60;;;22.20;;
29838;SDS011;18669;53.356;-1.464;2023-05-20T06:10:57;42.55;;;22.40;;
29838;SDS011;18669;53.356;-1.464;2023-05-20T06:13:42;41.92;;;21.75;;
29838;SDS011;18669;53.356;-1.464;2023-05-20T06:16:27;42.05;;;21.13;;
29838;SDS011;18669;53.356;-1.464;2023-05-20T06:19:12;41.88;;;21.08;;
29838;SDS011;18669;53.356;-1.464;2023-05-20T06:21:58;41.80;;;20.90;;
29838;SDS011;18669;53.356;-1.464;2023-05-20T06:24:43;40.53;;;20.60;;
29838;SDS011;18669;53.356;-1.464;2023-05-20T06:27:28;40.30;;;19.35;;
29838;SDS011;18669;53.356;-1.464;2023-05-20T06:30:13;37.72;;;19.10;;
29838;SDS011;18669;53.356;-1.464;2023-05-20T06:32:58;48.63;;;20.92;;
29838;SDS011;18669;53.356;-1.464;2023-05-20T06:35:42;45.60;;;21.10;;
29838;SDS011;18669;53.356;-1.464;2023-05-20T06:38:30;48.30;;;20.48;;
29838;SDS011;18669;53.356;-1.464;2023-05-20T06:41:18;41.90;;;20.98;;
29838;SDS011;18669;53.356;-1.464;2023-05-20T06:44:03;45.10;;;21.23;;
29838;SDS011;18669;53.356;-1.464;2023-05-20T06:46:48;37.92;;;18.90;;
29838;SDS011;18669;53.356;-1.464;2023-05-20T06:49:33;50.50;;;20.10;;
29838;SDS011;18669;53.356;-1.464;2023-05-20T06:52:18;41.10;;;19.98;;
29838;SDS011;18669;53.356;-1.464;2023-05-20T06:55:03;40.60;;;20.80;;
29838;SDS011;18669;53.356;-1.464;2023-05-20T06:57:48;32.53;;;18.83;;
29838;SDS011;18669;53.356;-1.464;2023-05-20T07:00:33;49.55;;;20.50;;
29838;SDS011;18669;53.356;-1.464;2023-05-20T07:03:18;36.65;;;20.50;;
29838;SDS011;18669;53.356;-1.464;2023-05-20T07:06:03;39.60;;;20.70;;
29838;SDS011;18669;53.356;-1.464;2023-05-20T07:08:47;42.88;;;21.15;;
29838;SDS011;18669;53.356;-1.464;2023-05-20T07:11:32;37.25;;;19.80;;
29838;SDS011;18669;53.356;-1.464;2023-05-20T07:14:17;40.40;;;19.27;;
29838;SDS011;18669;53.356;-1.464;2023-05-20T07:17:03;43.03;;;20.10;;
29838;SDS011;18669;53.356;-1.464;2023-05-20T07:19:48;41.78;;;20.80;;
29838;SDS011;18669;53.356;-1.464;2023-05-20T07:22:33;45.08;;;20.20;;
29838;SDS011;18669;53.356;-1.464;2023-05-20T07:25:19;42.58;;;19.90;;
29838;SDS011;18669;53.356;-1.464;2023-05-20T07:28:03;35.13;;;18.00;;
29838;SDS011;18669;53.356;-1.464;2023-05-20T07:30:48;34.83;;;17.52;;
29838;SDS011;18669;53.356;-1.464;2023-05-20T07:33:33;29.58;;;15.77;;
29838;SDS011;18669;53.356;-1.464;2023-05-20T07:36:19;32.42;;;17.45;;
29838;SDS011;18669;53.356;-1.464;2023-05-20T07:39:06;36.88;;;17.65;;
29838;SDS011;18669;53.356;-1.464;2023-05-20T07:41:52;26.55;;;14.52;;
29838;SDS011;18669;53.356;-1.464;2023-05-20T07:44:37;30.87;;;13.23;;
29838;SDS011;18669;53.356;-1.464;2023-05-20T07:47:22;27.77;;;13.27;;
29838;SDS011;18669;53.356;-1.464;2023-05-20T07:50:07;29.48;;;13.68;;
29838;SDS011;18669;53.356;-1.464;2023-05-20T07:52:53;25.10;;;13.60;;
29838;SDS011;18669;53.356;-1.464;2023-05-20T07:55:37;26.70;;;13.75;;
29838;SDS011;18669;53.356;-1.464;2023-05-20T07:58:22;32.10;;;15.15;;
29838;SDS011;18669;53.356;-1.464;2023-05-20T08:01:07;27.85;;;13.63;;
29838;SDS011;18669;53.356;-1.464;2023-05-20T08:03:52;30.38;;;13.60;;
29838;SDS011;18669;53.356;-1.464;2023-05-20T08:06:37;25.38;;;11.95;;
29838;SDS011;18669;53.356;-1.464;2023-05-20T08:09:23;25.70;;;10.35;;
29838;SDS011;18669;53.356;-1.464;2023-05-20T08:12:07;19.45;;;11.20;;
29838;SDS011;18669;53.356;-1.464;2023-05-20T08:14:53;21.77;;;11.35;;
29838;SDS011;18669;53.356;-1.464;2023-05-20T08:17:37;19.20;;;9.77;;
29838;SDS011;18669;53.356;-1.464;2023-05-20T08:20:22;20.02;;;9.70;;
29838;SDS011;18669;53.356;-1.464;2023-05-20T08:23:09;22.85;;;11.07;;
29838;SDS011;18669;53.356;-1.464;2023-05-20T08:25:54;18.80;;;9.90;;
29838;SDS011;18669;53.356;-1.464;2023-05-20T08:31:25;19.70;;;10.32;;
29838;SDS011;18669;53.356;-1.464;2023-05-20T08:34:10;15.93;;;8.55;;
29838;SDS011;18669;53.356;-1.464;2023-05-20T08:36:55;13.80;;;7.57;;
29838;SDS011;18669;53.356;-1.464;2023-05-20T08:39:41;16.50;;;9.25;;
29838;SDS011;18669;53.356;-1.464;2023-05-20T08:42:26;15.00;;;8.80;;
29838;SDS011;18669;53.356;-1.464;2023-05-20T08:45:11;19.50;;;9.30;;
29838;SDS011;18669;53.356;-1.464;2023-05-20T08:47:57;19.33;;;8.50;;
29838;SDS011;18669;53.356;-1.464;2023-05-20T08:50:43;19.33;;;8.90;;
29838;SDS011;18669;53.356;-1.464;2023-05-20T08:53:33;17.33;;;9.45;;
29838;SDS011;18669;53.356;-1.464;2023-05-20T08:56:18;19.60;;;9.82;;
29838;SDS011;18669;53.356;-1.464;2023-05-20T08:59:03;16.93;;;8.03;;
29838;SDS011;18669;53.356;-1.464;2023-05-20T09:01:48;19.20;;;7.90;;
29838;SDS011;18669;53.356;-1.464;2023-05-20T09:04:33;18.25;;;8.35;;
29838;SDS011;18669;53.356;-1.464;2023-05-20T09:07:25;18.75;;;8.15;;
29838;SDS011;18669;53.356;-1.464;2023-05-20T09:10:11;14.68;;;7.82;;
29838;SDS011;18669;53.356;-1.464;2023-05-20T09:12:56;17.88;;;8.90;;
29838;SDS011;18669;53.356;-1.464;2023-05-20T09:15:42;17.73;;;7.90;;
29838;SDS011;18669;53.356;-1.464;2023-05-20T09:18:28;11.85;;;7.40;;
29838;SDS011;18669;53.356;-1.464;2023-05-20T09:21:13;15.75;;;6.50;;
29838;SDS011;18669;53.356;-1.464;2023-05-20T09:24:00;13.70;;;7.10;;
29838;SDS011;18669;53.356;-1.464;2023-05-20T09:26:45;17.23;;;7.25;;
29838;SDS011;18669;53.356;-1.464;2023-05-20T09:29:32;10.30;;;5.70;;
29838;SDS011;18669;53.356;-1.464;2023-05-20T09:32:17;8.13;;;4.53;;
29838;SDS011;18669;53.356;-1.464;2023-05-20T09:35:05;10.10;;;4.65;;
29838;SDS011;18669;53.356;-1.464;2023-05-20T09:37:54;13.98;;;5.88;;
29838;SDS011;18669;53.356;-1.464;2023-05-20T09:40:40;14.10;;;4.55;;
29838;SDS011;18669;53.356;-1.464;2023-05-20T09:43:27;8.20;;;4.30;;
29838;SDS011;18669;53.356;-1.464;2023-05-20T09:46:12;13.60;;;4.57;;
29838;SDS011;18669;53.356;-1.464;2023-05-20T09:48:58;12.68;;;4.28;;
29838;SDS011;18669;53.356;-1.464;2023-05-20T09:51:43;9.25;;;4.70;;
29838;SDS011;18669;53.356;-1.464;2023-05-20T09:57:53;8.65;;;3.50;;
29838;SDS011;18669;53.356;-1.464;2023-05-20T10:03:25;6.65;;;4.15;;
29838;SDS011;18669;53.356;-1.464;2023-05-20T10:09:29;9.18;;;3.42;;
29838;SDS011;18669;53.356;-1.464;2023-05-20T10:12:38;10.70;;;5.00;;
29838;SDS011;18669;53.356;-1.464;2023-05-20T10:15:59;10.02;;;4.47;;
29838;SDS011;18669;53.356;-1.464;2023-05-20T10:22:14;12.95;;;4.15;;
29838;SDS011;18669;53.356;-1.464;2023-05-20T10:24:59;9.50;;;3.72;;
29838;SDS011;18669;53.356;-1.464;2023-05-20T10:27:50;10.68;;;4.28;;
29838;SDS011;18669;53.356;-1.464;2023-05-20T10:30:35;11.13;;;4.28;;
29838;SDS011;18669;53.356;-1.464;2023-05-20T10:33:20;10.00;;;4.18;;
29838;SDS011;18669;53.356;-1.464;2023-05-20T10:36:05;7.82;;;4.38;;
29838;SDS011;18669;53.356;-1.464;2023-05-20T10:38:51;8.38;;;3.90;;
29838;SDS011;18669;53.356;-1.464;2023-05-20T10:41:37;9.20;;;5.00;;
29838;SDS011;18669;53.356;-1.464;2023-05-20T10:44:22;10.30;;;5.60;;
29838;SDS011;18669;53.356;-1.464;2023-05-20T10:47:07;6.35;;;4.22;;
29838;SDS011;18669;53.356;-1.464;2023-05-20T10:49:52;13.43;;;4.90;;
29838;SDS011;18669;53.356;-1.464;2023-05-20T10:52:37;8.07;;;4.47;;
29838;SDS011;18669;53.356;-1.464;2023-05-20T10:55:22;7.47;;;3.70;;
29838;SDS011;18669;53.356;-1.464;2023-05-20T10:58:08;6.63;;;3.65;;
29838;SDS011;18669;53.356;-1.464;2023-05-20T11:00:54;7.30;;;3.40;;
29838;SDS011;18669;53.356;-1.464;2023-05-20T11:06:25;7.25;;;3.58;;
29838;SDS011;18669;53.356;-1.464;2023-05-20T11:09:11;5.10;;;3.35;;
29838;SDS011;18669;53.356;-1.464;2023-05-20T11:11:56;7.70;;;3.33;;
29838;SDS011;18669;53.356;-1.464;2023-05-20T11:17:26;10.15;;;3.67;;
29838;SDS011;18669;53.356;-1.464;2023-05-20T11:20:13;7.13;;;4.00;;
29838;SDS011;18669;53.356;-1.464;2023-05-20T11:22:58;8.18;;;4.10;;
29838;SDS011;18669;53.356;-1.464;2023-05-20T11:25:43;10.45;;;4.32;;
29838;SDS011;18669;53.356;-1.464;2023-05-20T11:28:28;9.10;;;3.50;;
29838;SDS011;18669;53.356;-1.464;2023-05-20T11:31:14;10.07;;;3.67;;
29838;SDS011;18669;53.356;-1.464;2023-05-20T11:33:58;5.45;;;3.65;;
29838;SDS011;18669;53.356;-1.464;2023-05-20T11:36:44;7.55;;;3.95;;
29838;SDS011;18669;53.356;-1.464;2023-05-20T11:39:29;6.63;;;4.10;;
29838;SDS011;18669;53.356;-1.464;2023-05-20T11:42:14;5.47;;;3.78;;
29838;SDS011;18669;53.356;-1.464;2023-05-20T11:47:44;7.47;;;3.95;;
29838;SDS011;18669;53.356;-1.464;2023-05-20T11:50:38;9.43;;;4.10;;
29838;SDS011;18669;53.356;-1.464;2023-05-20T11:53:24;5.85;;;3.80;;
29838;SDS011;18669;53.356;-1.464;2023-05-20T11:56:09;8.05;;;4.13;;
29838;SDS011;18669;53.356;-1.464;2023-05-20T11:58:55;6.45;;;4.25;;
29838;SDS011;18669;53.356;-1.464;2023-05-20T12:01:44;6.65;;;4.28;;
29838;SDS011;18669;53.356;-1.464;2023-05-20T12:04:29;7.50;;;3.60;;
29838;SDS011;18669;53.356;-1.464;2023-05-20T12:07:14;6.65;;;3.92;;
29838;SDS011;18669;53.356;-1.464;2023-05-20T12:10:00;9.00;;;3.97;;
29838;SDS011;18669;53.356;-1.464;2023-05-20T12:12:45;7.35;;;4.13;;
29838;SDS011;18669;53.356;-1.464;2023-05-20T12:15:29;7.90;;;4.30;;
29838;SDS011;18669;53.356;-1.464;2023-05-20T12:18:14;9.93;;;4.47;;
29838;SDS011;18669;53.356;-1.464;2023-05-20T12:20:59;15.93;;;4.68;;
29838;SDS011;18669;53.356;-1.464;2023-05-20T12:23:44;10.90;;;3.87;;
29838;SDS011;18669;53.356;-1.464;2023-05-20T12:26:29;12.87;;;3.50;;
29838;SDS011;18669;53.356;-1.464;2023-05-20T12:29:14;7.67;;;3.87;;
29838;SDS011;18669;53.356;-1.464;2023-05-20T12:31:59;7.40;;;3.70;;
29838;SDS011;18669;53.356;-1.464;2023-05-20T12:34:44;6.43;;;3.60;;
29838;SDS011;18669;53.356;-1.464;2023-05-20T12:37:29;7.50;;;4.05;;
29838;SDS011;18669;53.356;-1.464;2023-05-20T12:40:14;19.67;;;10.23;;
29838;SDS011;18669;53.356;-1.464;2023-05-20T12:43:00;9.50;;;4.63;;
29838;SDS011;18669;53.356;-1.464;2023-05-20T12:45:46;7.10;;;3.50;;
29838;SDS011;18669;53.356;-1.464;2023-05-20T12:48:31;6.97;;;4.17;;
29838;SDS011;18669;53.356;-1.464;2023-05-20T12:51:16;16.00;;;4.20;;
29838;SDS011;18669;53.356;-1.464;2023-05-20T12:54:02;7.45;;;3.80;;
29838;SDS011;18669;53.356;-1.464;2023-05-20T12:56:47;6.97;;;3.83;;
29838;SDS011;18669;53.356;-1.464;2023-05-20T12:59:31;6.83;;;3.63;;
29838;SDS011;18669;53.356;-1.464;2023-05-20T13:02:16;7.32;;;3.67;;
29838;SDS011;18669;53.356;-1.464;2023-05-20T13:05:04;5.15;;;3.40;;
29838;SDS011;18669;53.356;-1.464;2023-05-20T13:07:49;7.80;;;3.45;;
29838;SDS011;18669;53.356;-1.464;2023-05-20T13:10:34;7.10;;;3.85;;
29838;SDS011;18669;53.356;-1.464;2023-05-20T13:13:19;6.70;;;4.00;;
29838;SDS011;18669;53.356;-1.464;2023-05-20T13:16:05;9.38;;;4.10;;
29838;SDS011;18669;53.356;-1.464;2023-05-20T13:18:49;7.25;;;3.75;;
29838;SDS011;18669;53.356;-1.464;2023-05-20T13:21:35;10.45;;;3.78;;
29838;SDS011;18669;53.356;-1.464;2023-05-20T13:24:20;5.20;;;3.60;;
29838;SDS011;18669;53.356;-1.464;2023-05-20T13:27:07;10.20;;;3.90;;
29838;SDS011;18669;53.356;-1.464;2023-05-20T13:29:52;7.55;;;4.15;;
29838;SDS011;18669;53.356;-1.464;2023-05-20T13:32:37;6.55;;;3.20;;
29838;SDS011;18669;53.356;-1.464;2023-05-20T13:35:22;5.95;;;3.55;;
29838;SDS011;18669;53.356;-1.464;2023-05-20T13:38:06;5.00;;;3.50;;
29838;SDS011;18669;53.356;-1.464;2023-05-20T13:40:51;9.88;;;3.97;;
29838;SDS011;18669;53.356;-1.464;2023-05-20T13:43:36;10.40;;;4.03;;
29838;SDS011;18669;53.356;-1.464;2023-05-20T13:46:22;4.47;;;3.40;;
29838;SDS011;18669;53.356;-1.464;2023-05-20T13:49:07;6.97;;;3.63;;
29838;SDS011;18669;53.356;-1.464;2023-05-20T13:51:52;5.83;;;3.40;;
29838;SDS011;18669;53.356;-1.464;2023-05-20T13:54:37;7.90;;;4.00;;
29838;SDS011;18669;53.356;-1.464;2023-05-20T13:57:22;5.43;;;3.30;;
29838;SDS011;18669;53.356;-1.464;2023-05-20T14:00:07;6.70;;;3.70;;
29838;SDS011;18669;53.356;-1.464;2023-05-20T14:02:52;10.07;;;3.65;;
29838;SDS011;18669;53.356;-1.464;2023-05-20T14:05:37;5.38;;;3.58;;
29838;SDS011;18669;53.356;-1.464;2023-05-20T14:08:24;8.82;;;3.53;;
29838;SDS011;18669;53.356;-1.464;2023-05-20T14:11:08;8.02;;;3.80;;
29838;SDS011;18669;53.356;-1.464;2023-05-20T14:13:53;6.40;;;3.45;;
29838;SDS011;18669;53.356;-1.464;2023-05-20T14:16:38;6.60;;;3.33;;
29838;SDS011;18669;53.356;-1.464;2023-05-20T14:19:24;4.80;;;3.30;;
29838;SDS011;18669;53.356;-1.464;2023-05-20T14:22:09;3.95;;;3.25;;
29838;SDS011;18669;53.356;-1.464;2023-05-20T14:24:57;5.30;;;3.25;;
29838;SDS011;18669;53.356;-1.464;2023-05-20T14:27:41;5.05;;;3.33;;
29838;SDS011;18669;53.356;-1.464;2023-05-20T14:30:26;6.55;;;3.65;;
29838;SDS011;18669;53.356;-1.464;2023-05-20T14:33:11;6.95;;;3.60;;
29838;SDS011;18669;53.356;-1.464;2023-05-20T14:35:56;5.55;;;3.88;;
29838;SDS011;18669;53.356;-1.464;2023-05-20T14:38:41;5.72;;;3.53;;
29838;SDS011;18669;53.356;-1.464;2023-05-20T14:41:26;5.38;;;3.75;;
29838;SDS011;18669;53.356;-1.464;2023-05-20T14:44:11;7.30;;;3.65;;
29838;SDS011;18669;53.356;-1.464;2023-05-20T14:46:56;11.05;;;3.60;;
29838;SDS011;18669;53.356;-1.464;2023-05-20T14:49:41;6.03;;;3.55;;
29838;SDS011;18669;53.356;-1.464;2023-05-20T14:52:27;6.72;;;4.53;;
29838;SDS011;18669;53.356;-1.464;2023-05-20T14:55:12;9.63;;;3.58;;
29838;SDS011;18669;53.356;-1.464;2023-05-20T14:57:57;6.18;;;3.20;;
29838;SDS011;18669;53.356;-1.464;2023-05-20T15:00:42;7.28;;;3.45;;
29838;SDS011;18669;53.356;-1.464;2023-05-20T15:03:27;8.70;;;3.88;;
29838;SDS011;18669;53.356;-1.464;2023-05-20T15:06:12;4.95;;;3.33;;
29838;SDS011;18669;53.356;-1.464;2023-05-20T15:08:56;7.57;;;3.80;;
29838;SDS011;18669;53.356;-1.464;2023-05-20T15:11:42;3.58;;;3.08;;
29838;SDS011;18669;53.356;-1.464;2023-05-20T15:14:27;5.95;;;3.70;;
29838;SDS011;18669;53.356;-1.464;2023-05-20T15:17:12;6.88;;;3.97;;
29838;SDS011;18669;53.356;-1.464;2023-05-20T15:19:57;9.70;;;3.40;;
29838;SDS011;18669;53.356;-1.464;2023-05-20T15:22:42;9.20;;;3.40;;
29838;SDS011;18669;53.356;-1.464;2023-05-20T15:25:31;7.85;;;3.88;;
29838;SDS011;18669;53.356;-1.464;2023-05-20T15:28:18;5.82;;;3.65;;
29838;SDS011;18669;53.356;-1.464;2023-05-20T15:31:03;4.38;;;3.33;;
29838;SDS011;18669;53.356;-1.464;2023-05-20T15:33:48;5.63;;;3.13;;
29838;SDS011;18669;53.356;-1.464;2023-05-20T15:36:33;8.45;;;4.20;;
29838;SDS011;18669;53.356;-1.464;2023-05-20T15:39:18;6.35;;;3.13;;
29838;SDS011;18669;53.356;-1.464;2023-05-20T15:42:02;5.97;;;3.28;;
29838;SDS011;18669;53.356;-1.464;2023-05-20T15:44:48;7.60;;;3.45;;
29838;SDS011;18669;53.356;-1.464;2023-05-20T15:47:33;5.75;;;3.88;;
29838;SDS011;18669;53.356;-1.464;2023-05-20T15:50:18;8.65;;;3.47;;
29838;SDS011;18669;53.356;-1.464;2023-05-20T15:53:06;8.45;;;3.65;;
29838;SDS011;18669;53.356;-1.464;2023-05-20T15:55:52;10.75;;;3.40;;
29838;SDS011;18669;53.356;-1.464;2023-05-20T15:58:37;11.10;;;3.97;;
29838;SDS011;18669;53.356;-1.464;2023-05-20T16:01:22;8.55;;;2.88;;
29838;SDS011;18669;53.356;-1.464;2023-05-20T16:04:07;7.88;;;3.25;;
29838;SDS011;18669;53.356;-1.464;2023-05-20T16:06:51;7.78;;;3.10;;
29838;SDS011;18669;53.356;-1.464;2023-05-20T16:09:36;8.30;;;3.35;;
29838;SDS011;18669;53.356;-1.464;2023-05-20T16:12:22;9.00;;;3.42;;
29838;SDS011;18669;53.356;-1.464;2023-05-20T16:15:07;9.00;;;3.63;;
29838;SDS011;18669;53.356;-1.464;2023-05-20T16:17:53;7.43;;;3.00;;
29838;SDS011;18669;53.356;-1.464;2023-05-20T16:20:38;5.63;;;3.17;;
29838;SDS011;18669;53.356;-1.464;2023-05-20T16:23:23;6.68;;;2.70;;
29838;SDS011;18669;53.356;-1.464;2023-05-20T16:26:08;8.80;;;3.60;;
29838;SDS011;18669;53.356;-1.464;2023-05-20T16:28:52;13.13;;;7.60;;